METAR Data
IDs: Format: Raw Decoded Include TAF

Data at: 1252 UTC 26 Feb 2021

EKRS 261220Z AUTO VRB13G27KT 9999 BKN024/// 09/05 Q1026